createdAt,value
2022-09-29T00:01:17.042Z,86.81
2022-09-29T00:03:46.618Z,86.90
2022-09-29T00:06:17.765Z,86.84
2022-09-29T00:08:46.923Z,86.72
2022-09-29T00:11:17.997Z,86.73
2022-09-29T00:13:47.187Z,86.67
2022-09-29T00:16:15.490Z,86.88
2022-09-29T00:18:43.809Z,86.87
2022-09-29T00:21:16.382Z,86.78
2022-09-29T00:23:44.876Z,86.84
2022-09-29T00:26:16.772Z,86.61
2022-09-29T00:28:50.100Z,86.64
2022-09-29T00:31:18.331Z,86.76
2022-09-29T00:33:47.329Z,86.71
2022-09-29T00:36:19.297Z,86.88
2022-09-29T00:38:49.109Z,86.91
2022-09-29T00:41:21.321Z,86.85
2022-09-29T00:43:55.575Z,86.79
2022-09-29T00:46:32.156Z,86.54
2022-09-29T00:49:06.612Z,86.90
2022-09-29T00:51:40.584Z,86.87
2022-09-29T00:54:10.627Z,86.82
2022-09-29T00:56:42.793Z,86.83
2022-09-29T00:59:15.496Z,86.88
2022-09-29T01:01:43.795Z,86.70
2022-09-29T01:04:15.379Z,86.75
2022-09-29T01:06:50.507Z,86.76
2022-09-29T01:09:22.298Z,86.85
2022-09-29T01:11:52.781Z,86.75
2022-09-29T01:14:21.156Z,86.92
2022-09-29T01:16:49.364Z,86.90
2022-09-29T01:19:25.421Z,86.90
2022-09-29T01:22:07.452Z,86.96
2022-09-29T01:25:04.160Z,86.81
2022-09-29T01:28:19.045Z,86.91
2022-09-29T01:31:19.517Z,86.85
2022-09-29T01:33:59.824Z,86.97
2022-09-29T01:36:41.542Z,87.04
2022-09-29T01:39:20.723Z,86.87
2022-09-29T01:41:54.383Z,86.78
2022-09-29T01:44:30.156Z,86.99
2022-09-29T01:47:08.298Z,87.13
2022-09-29T01:49:44.771Z,87.06
2022-09-29T01:52:16.784Z,87.17
2022-09-29T01:54:52.067Z,87.10
2022-09-29T01:57:27.386Z,87.14
2022-09-29T02:00:02.705Z,87.01
2022-09-29T02:02:40.374Z,86.95
2022-09-29T02:05:17.014Z,86.95
2022-09-29T02:07:47.919Z,86.95
2022-09-29T02:10:24.253Z,87.00
2022-09-29T02:12:57.024Z,86.87
2022-09-29T02:15:29.992Z,86.90
2022-09-29T02:18:02.807Z,87.16
2022-09-29T02:20:31.225Z,87.01
2022-09-29T02:22:59.696Z,87.12
2022-09-29T02:25:27.899Z,86.96
2022-09-29T02:27:56.680Z,87.26
2022-09-29T02:30:24.870Z,87.11
2022-09-29T02:32:53.120Z,87.19
2022-09-29T02:35:23.115Z,87.10
2022-09-29T02:38:05.634Z,86.97
2022-09-29T02:40:48.618Z,87.12
2022-09-29T02:43:27.467Z,87.21
2022-09-29T02:46:15.392Z,86.90
2022-09-29T02:49:15.539Z,87.31
2022-09-29T02:51:50.144Z,87.18
2022-09-29T02:54:34.460Z,87.01
2022-09-29T02:57:14.647Z,87.07
2022-09-29T02:59:53.827Z,87.11
2022-09-29T03:02:27.270Z,87.25
2022-09-29T03:04:55.600Z,87.13
2022-09-29T03:07:25.476Z,87.18
2022-09-29T03:09:53.696Z,87.15
2022-09-29T03:12:21.876Z,87.28
2022-09-29T03:14:50.047Z,87.21
2022-09-29T03:17:18.640Z,87.16
2022-09-29T03:19:46.776Z,87.22
2022-09-29T03:22:15.156Z,87.26
2022-09-29T03:24:44.702Z,87.10
2022-09-29T03:27:13.180Z,87.33
2022-09-29T03:29:41.404Z,87.26
2022-09-29T03:32:09.647Z,87.15
2022-09-29T03:34:37.991Z,87.40
2022-09-29T03:37:06.478Z,87.27
2022-09-29T03:39:34.682Z,87.28
2022-09-29T03:42:04.258Z,87.42
2022-09-29T03:44:32.419Z,87.56
2022-09-29T03:47:00.828Z,87.26
2022-09-29T03:49:29.261Z,87.32
2022-09-29T03:51:57.432Z,87.49
2022-09-29T03:54:27.617Z,87.38
2022-09-29T03:56:55.777Z,87.28
2022-09-29T03:59:25.290Z,87.30
2022-09-29T04:01:53.560Z,87.45
2022-09-29T04:04:21.756Z,87.35
2022-09-29T04:06:49.932Z,87.35
2022-09-29T04:09:18.237Z,87.21
2022-09-29T04:11:46.589Z,87.54
2022-09-29T04:14:14.814Z,87.39
2022-09-29T04:16:44.354Z,87.35
2022-09-29T04:19:12.627Z,87.58
2022-09-29T04:21:40.832Z,87.52
2022-09-29T04:24:09.284Z,87.72
2022-09-29T04:26:37.463Z,87.51
2022-09-29T04:29:05.648Z,87.64
2022-09-29T04:31:33.948Z,87.71
2022-09-29T04:34:03.680Z,87.58
2022-09-29T04:36:31.960Z,87.62
2022-09-29T04:39:00.107Z,87.73
2022-09-29T04:41:28.657Z,87.59
2022-09-29T04:43:56.835Z,87.75
2022-09-29T04:46:24.991Z,87.56
2022-09-29T04:48:53.132Z,87.63
2022-09-29T04:51:22.653Z,87.79
2022-09-29T04:53:51.017Z,87.67
2022-09-29T04:56:19.196Z,87.79
2022-09-29T04:58:47.385Z,87.73
2022-09-29T05:01:15.629Z,87.60
2022-09-29T05:03:44.330Z,87.58
2022-09-29T05:06:12.506Z,87.63
2022-09-29T05:08:42.005Z,87.63
2022-09-29T05:11:11.931Z,87.74
2022-09-29T05:13:40.269Z,87.80
2022-09-29T05:16:09.322Z,87.66
2022-09-29T05:18:37.482Z,87.75
2022-09-29T05:23:57.546Z,87.83
2022-09-29T05:26:26.149Z,87.70
2022-09-29T05:28:54.349Z,87.82
2022-09-29T05:31:23.198Z,87.68
2022-09-29T05:33:51.961Z,87.95
2022-09-29T05:36:20.248Z,87.74
2022-09-29T05:38:48.678Z,87.83
2022-09-29T05:41:23.978Z,87.79
2022-09-29T05:43:53.570Z,88.03
2022-09-29T05:46:23.060Z,87.75
2022-09-29T05:48:52.378Z,87.89
2022-09-29T05:51:23.831Z,87.77
2022-09-29T05:53:52.822Z,87.81
2022-09-29T05:56:24.211Z,87.92
2022-09-29T05:58:53.763Z,87.76
2022-09-29T06:01:24.646Z,87.68
2022-09-29T06:03:55.497Z,87.70
2022-09-29T06:06:27.138Z,87.80
2022-09-29T06:08:56.103Z,87.81
2022-09-29T06:11:28.511Z,87.83
2022-09-29T06:13:57.323Z,87.63
2022-09-29T06:16:29.052Z,87.63
2022-09-29T06:18:57.370Z,87.57
2022-09-29T06:21:27.714Z,87.66
2022-09-29T06:23:58.020Z,87.57
2022-09-29T06:26:28.667Z,87.67
2022-09-29T06:28:58.575Z,87.75
2022-09-29T06:31:29.695Z,87.71
2022-09-29T06:33:59.437Z,87.86
2022-09-29T06:36:48.894Z,87.88
2022-09-29T06:39:17.968Z,87.80
2022-09-29T06:41:53.487Z,87.70
2022-09-29T06:44:23.378Z,87.79
2022-09-29T06:46:52.139Z,87.81
2022-09-29T06:49:21.004Z,87.65
2022-09-29T06:51:49.889Z,87.82
2022-09-29T06:54:20.877Z,87.75
2022-09-29T06:56:51.747Z,87.57
2022-09-29T06:59:20.401Z,87.51
2022-09-29T07:01:51.114Z,87.70
2022-09-29T07:04:21.921Z,87.49
2022-09-29T07:06:50.959Z,87.81
2022-09-29T07:09:20.441Z,87.72
2022-09-29T07:11:52.477Z,87.53
2022-09-29T07:14:23.534Z,87.70
2022-09-29T07:16:52.472Z,87.57
2022-09-29T07:19:22.233Z,87.56
2022-09-29T07:21:51.680Z,87.74
2022-09-29T07:24:19.913Z,87.60
2022-09-29T07:26:48.096Z,87.70
2022-09-29T07:29:17.883Z,87.39
2022-09-29T07:31:52.216Z,87.82
2022-09-29T07:34:21.324Z,87.83
2022-09-29T07:36:49.780Z,87.71
2022-09-29T07:39:18.101Z,87.54
2022-09-29T07:41:46.271Z,87.75
2022-09-29T07:44:14.414Z,87.57
2022-09-29T07:46:43.941Z,87.54
2022-09-29T07:49:12.218Z,87.64
2022-09-29T07:51:40.423Z,87.67
2022-09-29T07:54:08.708Z,87.51
2022-09-29T07:56:36.938Z,87.54
2022-09-29T07:59:05.470Z,87.64
2022-09-29T08:01:34.217Z,87.61
2022-09-29T08:04:04.364Z,87.67
2022-09-29T08:06:33.211Z,87.33
2022-09-29T08:09:05.160Z,87.46
2022-09-29T08:11:35.230Z,87.64
2022-09-29T08:14:03.569Z,87.61
2022-09-29T08:16:32.519Z,87.65
2022-09-29T08:19:01.185Z,87.69
2022-09-29T08:21:31.909Z,87.64
2022-09-29T08:24:02.391Z,87.51
2022-09-29T08:26:41.834Z,87.63
2022-09-29T08:29:16.468Z,87.44
2022-09-29T08:31:46.379Z,87.47
2022-09-29T08:34:15.390Z,87.77
2022-09-29T08:36:45.130Z,87.72
2022-09-29T08:39:15.446Z,87.53
2022-09-29T08:42:00.329Z,87.86
2022-09-29T08:44:39.655Z,87.83
2022-09-29T08:47:24.007Z,87.58
2022-09-29T08:49:57.339Z,87.87
2022-09-29T08:52:40.243Z,87.63
2022-09-29T08:55:31.825Z,87.97
2022-09-29T08:58:02.404Z,87.80
2022-09-29T09:00:41.803Z,87.59
2022-09-29T09:03:50.085Z,87.62
2022-09-29T09:06:27.969Z,87.56
2022-09-29T09:09:19.410Z,87.63
2022-09-29T09:12:11.376Z,87.52
2022-09-29T09:15:16.054Z,87.82
2022-09-29T09:18:07.769Z,87.60
2022-09-29T09:20:41.008Z,87.68
2022-09-29T09:23:21.386Z,87.97
2022-09-29T09:25:55.869Z,87.60
2022-09-29T09:28:32.144Z,87.90
2022-09-29T09:31:07.631Z,87.58
2022-09-29T09:33:42.894Z,87.44
2022-09-29T09:36:29.898Z,87.63
2022-09-29T09:39:06.160Z,87.83
2022-09-29T09:41:39.304Z,87.92
2022-09-29T09:44:17.369Z,87.82
2022-09-29T09:46:50.930Z,87.82
2022-09-29T09:49:26.442Z,87.94
2022-09-29T09:52:03.699Z,87.69
2022-09-29T09:54:37.789Z,87.94
2022-09-29T09:58:02.514Z,87.62
2022-09-29T10:00:36.145Z,87.71
2022-09-29T10:03:07.860Z,87.76
2022-09-29T10:05:40.260Z,87.90
2022-09-29T10:08:13.603Z,87.99
2022-09-29T10:10:57.712Z,88.15
2022-09-29T10:13:31.700Z,87.86
2022-09-29T10:16:02.580Z,87.98
2022-09-29T10:18:38.596Z,87.86
2022-09-29T10:21:23.342Z,87.99
2022-09-29T10:23:56.518Z,87.83
2022-09-29T10:26:28.183Z,87.86
2022-09-29T10:29:02.879Z,87.97
2022-09-29T10:31:33.550Z,88.12
2022-09-29T10:34:14.705Z,87.88
2022-09-29T10:36:53.675Z,88.13
2022-09-29T10:39:41.056Z,88.08
2022-09-29T10:42:24.156Z,87.98
2022-09-29T10:44:56.021Z,88.22
2022-09-29T10:47:24.862Z,88.15
2022-09-29T10:50:19.180Z,87.86
2022-09-29T10:52:53.791Z,88.11
2022-09-29T10:55:24.756Z,88.03
2022-09-29T10:57:56.657Z,88.01
2022-09-29T11:00:34.455Z,88.01
2022-09-29T11:03:17.835Z,88.16
2022-09-29T11:05:54.133Z,88.37
2022-09-29T11:08:26.006Z,88.01
2022-09-29T11:11:07.473Z,88.07
2022-09-29T11:13:41.161Z,88.20
2022-09-29T11:16:20.000Z,88.11
2022-09-29T11:18:53.050Z,88.36
2022-09-29T11:22:24.454Z,88.31
2022-09-29T11:25:30.322Z,88.11
2022-09-29T11:28:18.174Z,87.92
2022-09-29T11:31:02.852Z,87.78
2022-09-29T11:33:47.941Z,88.17
2022-09-29T11:36:27.470Z,88.27
2022-09-29T11:39:21.104Z,88.12
2022-09-29T11:42:14.774Z,88.02
2022-09-29T11:44:59.244Z,88.25
2022-09-29T11:48:20.676Z,87.91
2022-09-29T11:51:03.510Z,88.08
2022-09-29T11:53:52.265Z,87.87
2022-09-29T11:56:33.608Z,88.08
2022-09-29T11:59:24.360Z,87.92
2022-09-29T12:02:18.107Z,88.09
2022-09-29T12:04:58.892Z,87.66
2022-09-29T12:07:42.492Z,87.94
2022-09-29T12:10:33.810Z,87.99
2022-09-29T12:13:20.890Z,88.04
2022-09-29T12:15:57.092Z,87.98
2022-09-29T12:18:32.291Z,88.01
2022-09-29T12:21:02.522Z,87.92
2022-09-29T12:23:34.476Z,88.16
2022-09-29T12:26:09.988Z,88.31
2022-09-29T12:28:46.366Z,88.33
2022-09-29T12:31:20.982Z,88.19
2022-09-29T12:33:53.604Z,88.42
2022-09-29T12:36:50.562Z,88.39
2022-09-29T12:39:36.762Z,88.42
2022-09-29T12:42:29.450Z,88.28
2022-09-29T12:45:10.847Z,88.57
2022-09-29T12:47:56.037Z,88.44
2022-09-29T12:50:29.840Z,88.49
2022-09-29T12:53:08.908Z,88.36
2022-09-29T12:55:49.157Z,88.66
2022-09-29T12:58:24.080Z,88.65
2022-09-29T13:01:03.993Z,88.51
2022-09-29T13:04:21.928Z,88.56
2022-09-29T13:07:23.185Z,88.52
2022-09-29T13:10:40.677Z,88.48
2022-09-29T13:13:52.840Z,88.59
2022-09-29T13:16:47.313Z,88.73
2022-09-29T13:19:57.512Z,88.77
2022-09-29T13:22:52.284Z,89.01
2022-09-29T13:25:28.841Z,88.69
2022-09-29T13:27:59.125Z,88.77
2022-09-29T13:30:32.079Z,88.88
2022-09-29T13:33:10.341Z,89.03
2022-09-29T13:35:42.588Z,88.83
2022-09-29T13:38:19.158Z,88.75
2022-09-29T13:41:16.758Z,88.92
2022-09-29T13:44:05.737Z,88.79
2022-09-29T13:46:41.838Z,88.68
2022-09-29T13:49:28.210Z,88.97
2022-09-29T13:51:58.054Z,88.82
2022-09-29T13:54:39.416Z,88.90
2022-09-29T13:57:27.672Z,88.67
2022-09-29T14:00:20.940Z,88.84
2022-09-29T14:03:23.546Z,88.82
2022-09-29T14:06:41.522Z,89.23
2022-09-29T14:09:09.184Z,88.93
2022-09-29T14:11:42.087Z,88.91
2022-09-29T14:14:15.804Z,89.17
2022-09-29T14:16:56.523Z,89.02
2022-09-29T14:19:52.600Z,88.99
2022-09-29T14:22:57.480Z,89.31
2022-09-29T14:25:55.801Z,89.11
2022-09-29T14:28:42.105Z,89.20
2022-09-29T14:31:25.203Z,89.36
2022-09-29T14:33:54.407Z,89.39
2022-09-29T14:36:28.187Z,89.37
2022-09-29T14:39:24.689Z,89.34
2022-09-29T14:41:48.961Z,89.38
2022-09-29T14:44:23.516Z,89.45
2022-09-29T14:47:49.007Z,89.40
2022-09-29T14:50:57.745Z,89.30
2022-09-29T14:53:57.723Z,89.54
2022-09-29T14:56:44.199Z,89.34
2022-09-29T14:59:25.347Z,89.55
2022-09-29T15:02:17.860Z,89.52
2022-09-29T15:04:47.582Z,89.37
2022-09-29T15:07:18.773Z,89.50
2022-09-29T15:09:52.517Z,89.28
2022-09-29T15:12:26.427Z,89.42
2022-09-29T15:14:57.880Z,89.65
2022-09-29T15:17:43.750Z,89.48
2022-09-29T15:20:24.847Z,89.47
2022-09-29T15:23:28.849Z,89.41
2022-09-29T15:28:37.690Z,89.74
2022-09-29T15:31:09.935Z,89.73
2022-09-29T15:33:41.151Z,89.84
2022-09-29T15:36:20.173Z,89.87
2022-09-29T15:38:54.104Z,89.60
2022-09-29T15:41:29.077Z,89.83
2022-09-29T15:44:01.920Z,89.65
2022-09-29T15:46:39.286Z,89.96
2022-09-29T15:49:15.671Z,89.95
2022-09-29T15:51:47.231Z,89.75
2022-09-29T15:54:16.372Z,89.90
2022-09-29T15:57:06.052Z,90.23
2022-09-29T15:59:43.408Z,90.07
2022-09-29T16:02:31.402Z,90.18
2022-09-29T16:05:03.816Z,89.99
2022-09-29T16:07:34.564Z,89.97
2022-09-29T16:10:09.652Z,89.90
2022-09-29T16:12:47.792Z,90.29
2022-09-29T16:15:23.099Z,90.12
2022-09-29T16:17:52.054Z,89.85
2022-09-29T16:20:28.060Z,90.12
2022-09-29T16:22:56.939Z,90.07
2022-09-29T16:25:29.099Z,89.74
2022-09-29T16:28:01.354Z,89.87
2022-09-29T16:30:38.706Z,90.24
2022-09-29T16:33:16.082Z,89.88
2022-09-29T16:35:57.458Z,90.08
2022-09-29T16:38:36.813Z,90.01
2022-09-29T16:41:35.604Z,90.09
2022-09-29T16:44:16.243Z,90.32
2022-09-29T16:46:51.284Z,90.32
2022-09-29T16:49:22.935Z,90.25
2022-09-29T16:51:51.958Z,89.89
2022-09-29T16:54:26.521Z,89.96
2022-09-29T16:57:25.376Z,90.06
2022-09-29T16:59:57.095Z,90.16
2022-09-29T17:02:27.075Z,90.01
2022-09-29T17:04:57.534Z,90.15
2022-09-29T17:07:28.461Z,90.06
2022-09-29T17:10:00.020Z,90.17
2022-09-29T17:12:31.477Z,90.39
2022-09-29T17:15:01.502Z,90.45
2022-09-29T17:17:30.026Z,90.46
2022-09-29T17:19:58.413Z,90.62
2022-09-29T17:22:31.184Z,90.35
2022-09-29T17:24:59.953Z,90.50
2022-09-29T17:27:47.923Z,90.32
2022-09-29T17:30:22.700Z,90.25
2022-09-29T17:32:53.947Z,90.38
2022-09-29T17:35:33.497Z,90.46
2022-09-29T17:38:01.737Z,90.23
2022-09-29T17:40:35.604Z,90.29
2022-09-29T17:43:03.853Z,90.69
2022-09-29T17:45:35.381Z,90.36
2022-09-29T17:48:04.932Z,90.39
2022-09-29T17:50:36.905Z,90.29
2022-09-29T17:53:05.801Z,90.23
2022-09-29T17:55:35.210Z,90.30
2022-09-29T17:58:03.871Z,90.80
2022-09-29T18:00:38.201Z,90.77
2022-09-29T18:03:09.480Z,90.59
2022-09-29T18:05:40.690Z,90.57
2022-09-29T18:08:14.239Z,90.68
2022-09-29T18:10:45.326Z,90.75
2022-09-29T18:13:13.743Z,90.56
2022-09-29T18:15:43.956Z,90.53
2022-09-29T18:18:17.296Z,90.71
2022-09-29T18:20:47.114Z,90.59
2022-09-29T18:23:16.422Z,90.42
2022-09-29T18:25:47.976Z,90.68
2022-09-29T18:28:18.298Z,90.57
2022-09-29T18:30:52.151Z,90.69
2022-09-29T18:33:21.406Z,90.88
2022-09-29T18:35:54.683Z,90.77
2022-09-29T18:38:23.128Z,90.43
2022-09-29T18:40:54.392Z,90.71
2022-09-29T18:43:25.063Z,90.77
2022-09-29T18:45:57.459Z,90.61
2022-09-29T18:48:25.990Z,90.75
2022-09-29T18:50:55.109Z,90.76
2022-09-29T18:53:24.122Z,90.75
2022-09-29T18:55:58.319Z,90.43
2022-09-29T18:58:26.503Z,90.56
2022-09-29T19:00:57.393Z,90.64
2022-09-29T19:03:27.800Z,90.55
2022-09-29T19:05:57.048Z,90.52
2022-09-29T19:08:26.711Z,90.86
2022-09-29T19:10:58.300Z,90.85
2022-09-29T19:13:26.648Z,90.60
2022-09-29T19:16:00.122Z,90.69
2022-09-29T19:18:28.569Z,91.01
2022-09-29T19:20:58.755Z,90.54
2022-09-29T19:23:28.171Z,90.69
2022-09-29T19:25:58.512Z,90.77
2022-09-29T19:28:27.656Z,90.81
2022-09-29T19:30:56.517Z,90.87
2022-09-29T19:33:26.147Z,90.86
2022-09-29T19:35:55.570Z,90.88
2022-09-29T19:38:24.692Z,91.00
2022-09-29T19:40:53.237Z,90.68
2022-09-29T19:43:23.038Z,90.98
2022-09-29T19:45:51.809Z,90.65
2022-09-29T19:48:22.574Z,90.91
2022-09-29T19:51:16.631Z,90.83
2022-09-29T19:53:48.659Z,90.79
2022-09-29T19:56:18.495Z,91.00
2022-09-29T19:58:46.683Z,90.69
2022-09-29T20:01:14.972Z,91.02
2022-09-29T20:03:43.532Z,90.70
2022-09-29T20:06:13.105Z,90.98
2022-09-29T20:08:41.682Z,90.94
2022-09-29T20:11:12.612Z,90.88
2022-09-29T20:13:41.793Z,91.13
2022-09-29T20:16:09.998Z,90.75
2022-09-29T20:18:39.499Z,91.07
2022-09-29T20:21:08.721Z,90.84
2022-09-29T20:23:39.222Z,90.83
2022-09-29T20:26:09.563Z,90.94
2022-09-29T20:28:38.851Z,90.92
2022-09-29T20:31:07.644Z,91.12
2022-09-29T20:33:38.495Z,91.10
2022-09-29T20:36:07.543Z,90.72
2022-09-29T20:38:43.409Z,91.04
2022-09-29T20:41:12.572Z,91.09
2022-09-29T20:43:43.707Z,90.90
2022-09-29T20:46:14.392Z,91.27
2022-09-29T20:48:43.944Z,91.05
2022-09-29T20:51:16.158Z,91.16
2022-09-29T20:53:51.302Z,90.86
2022-09-29T20:56:20.311Z,91.17
2022-09-29T20:58:51.633Z,90.92
2022-09-29T21:01:23.243Z,90.92
2022-09-29T21:03:52.525Z,91.13
2022-09-29T21:06:21.932Z,91.17
2022-09-29T21:08:51.943Z,91.26
2022-09-29T21:11:20.453Z,91.03
2022-09-29T21:13:49.460Z,91.48
2022-09-29T21:16:18.201Z,90.99
2022-09-29T21:18:47.109Z,91.14
2022-09-29T21:21:15.770Z,91.22
2022-09-29T21:23:44.408Z,91.28
2022-09-29T21:26:16.930Z,91.29
2022-09-29T21:28:50.468Z,91.14
2022-09-29T21:31:21.700Z,91.33
2022-09-29T21:33:55.456Z,91.20
2022-09-29T21:36:25.752Z,91.00
2022-09-29T21:38:54.408Z,91.40
2022-09-29T21:41:26.608Z,91.37
2022-09-29T21:43:57.364Z,91.45
2022-09-29T21:46:28.027Z,91.24
2022-09-29T21:48:58.536Z,91.02
2022-09-29T21:51:29.769Z,91.23
2022-09-29T21:54:01.397Z,91.30
2022-09-29T21:56:35.153Z,91.35
2022-09-29T21:59:03.399Z,91.44
2022-09-29T22:01:31.778Z,91.14
2022-09-29T22:04:00.709Z,91.17
2022-09-29T22:06:31.864Z,91.42
2022-09-29T22:09:01.571Z,91.17
2022-09-29T22:11:35.981Z,91.11
2022-09-29T22:14:04.483Z,91.42
2022-09-29T22:16:34.851Z,91.22
2022-09-29T22:21:55.187Z,91.37
2022-09-29T22:24:24.100Z,91.22
2022-09-29T22:26:54.313Z,91.26
2022-09-29T22:29:22.673Z,91.15
2022-09-29T22:31:51.175Z,91.51
2022-09-29T22:34:19.480Z,91.28
2022-09-29T22:36:47.750Z,91.33
2022-09-29T22:39:15.909Z,91.25
2022-09-29T22:41:44.104Z,91.16
2022-09-29T22:44:13.739Z,91.09
2022-09-29T22:46:42.035Z,91.54
2022-09-29T22:49:10.538Z,91.35
2022-09-29T22:51:38.778Z,91.38
2022-09-29T22:54:07.347Z,91.30
2022-09-29T22:56:35.706Z,91.42
2022-09-29T22:59:05.450Z,91.22
2022-09-29T23:01:35.447Z,91.45
2022-09-29T23:04:04.879Z,91.27
2022-09-29T23:06:33.251Z,91.12
2022-09-29T23:09:01.567Z,91.43
2022-09-29T23:11:31.224Z,91.51
2022-09-29T23:14:00.288Z,91.39
2022-09-29T23:16:29.324Z,91.33
2022-09-29T23:18:59.643Z,91.41
2022-09-29T23:21:28.195Z,91.54
2022-09-29T23:23:59.511Z,91.42
2022-09-29T23:26:29.695Z,91.48
2022-09-29T23:28:58.395Z,91.35
2022-09-29T23:31:26.778Z,91.59
2022-09-29T23:33:56.816Z,91.55
2022-09-29T23:36:29.289Z,91.59
2022-09-29T23:39:21.363Z,91.66
2022-09-29T23:41:52.524Z,91.71
2022-09-29T23:44:23.480Z,91.69
2022-09-29T23:46:53.303Z,91.50
2022-09-29T23:49:23.922Z,91.43
2022-09-29T23:51:56.506Z,91.27
2022-09-29T23:54:27.143Z,91.45
2022-09-29T23:56:57.445Z,91.33
2022-09-29T23:59:26.333Z,91.39
